Time;durP1;ratioP1;P1;durP2;ratioP2;P2;SDS_P1;SDS_P2;PMS_P1;PMS_P2;Temp;Humidity;BMP_temperature;BMP_pressure;BME280_temperature;BME280_humidity;BME280_pressure;Samples;Min_cycle;Max_cycle;Signal;HPM_P1;HPM_P2
2022/06/12 00:01:49;;;;;;;8.23;1.95;;;;;;;;;;5037865;28;20029;-76
2022/06/12 00:04:15;;;;;;;4.35;1.70;;;;;;;;;;5038199;28;20029;-75
2022/06/12 00:06:42;;;;;;;4.63;1.77;;;;;;;;;;5051792;28;20076;-76
2022/06/12 00:09:08;;;;;;;6.53;2.00;;;;;;;;;;5037758;28;20029;-76
2022/06/12 00:11:34;;;;;;;7.55;1.70;;;;;;;;;;5037892;28;20033;-76
2022/06/12 00:14:03;;;;;;;6.80;2.28;;;;;;;;;;5037832;28;20061;-76
2022/06/12 00:16:31;;;;;;;4.75;1.88;;;;;;;;;;5037856;28;20480;-77
2022/06/12 00:18:57;;;;;;;7.68;1.65;;;;;;;;;;5037649;28;20132;-77
2022/06/12 00:21:23;;;;;;;5.15;1.48;;;;;;;;;;5037750;28;20522;-76
2022/06/12 00:23:49;;;;;;;6.30;1.88;;;;;;;;;;5037781;28;20459;-77
2022/06/12 00:26:17;;;;;;;8.32;1.95;;;;;;;;;;5037675;28;20040;-77
2022/06/12 00:28:43;;;;;;;5.72;1.70;;;;;;;;;;5056001;28;20036;-77
2022/06/12 00:31:10;;;;;;;7.03;1.63;;;;;;;;;;5057416;28;20033;-77
2022/06/12 00:33:36;;;;;;;4.85;1.92;;;;;;;;;;5057563;28;20029;-77
2022/06/12 00:36:02;;;;;;;3.33;1.65;;;;;;;;;;5057669;28;20033;-77
2022/06/12 00:38:28;;;;;;;8.52;2.20;;;;;;;;;;5057451;28;20067;-77
2022/06/12 00:40:54;;;;;;;9.82;1.90;;;;;;;;;;5057532;28;20478;-76
2022/06/12 00:43:20;;;;;;;3.75;1.50;;;;;;;;;;5057507;28;20023;-77
2022/06/12 00:45:51;;;;;;;4.28;1.25;;;;;;;;;;5057341;28;20095;-76
2022/06/12 00:48:18;;;;;;;4.82;1.65;;;;;;;;;;5057530;28;20025;-77
2022/06/12 00:50:48;;;;;;;5.05;1.42;;;;;;;;;;5057384;28;20017;-77
2022/06/12 00:53:16;;;;;;;9.05;1.88;;;;;;;;;;5057450;28;20047;-77
2022/06/12 00:55:56;;;;;;;10.52;1.55;;;;;;;;;;5057405;28;20025;-76
2022/06/12 00:58:24;;;;;;;6.28;1.77;;;;;;;;;;5057284;28;20032;-77
2022/06/12 01:00:51;;;;;;;6.40;1.48;;;;;;;;;;5055586;28;20029;-77
2022/06/12 01:03:17;;;;;;;5.75;1.75;;;;;;;;;;5054324;28;20103;-76
2022/06/12 01:08:29;;;;;;;4.68;1.67;;;;;;;;;;5054032;28;20064;-77
2022/06/12 01:10:57;;;;;;;5.90;1.85;;;;;;;;;;5054065;28;20107;-76
2022/06/12 01:13:29;;;;;;;7.78;1.70;;;;;;;;;;5054073;28;20025;-76
2022/06/12 01:15:58;;;;;;;4.57;1.50;;;;;;;;;;5053984;28;20023;-77
2022/06/12 01:18:27;;;;;;;2.75;1.30;;;;;;;;;;5053878;28;20047;-76
2022/06/12 01:20:57;;;;;;;6.57;1.80;;;;;;;;;;5053770;28;20017;-76
2022/06/12 01:23:23;;;;;;;8.60;1.60;;;;;;;;;;5053954;28;20027;-77
2022/06/12 01:26:03;;;;;;;5.22;1.40;;;;;;;;;;5053718;28;20017;-77
2022/06/12 01:28:32;;;;;;;8.15;1.25;;;;;;;;;;5053703;28;20025;-77
2022/06/12 01:31:20;;;;;;;3.95;1.40;;;;;;;;;;5045563;28;20045;-76
2022/06/12 01:33:52;;;;;;;5.05;1.75;;;;;;;;;;5033670;28;20022;-77
2022/06/12 01:36:18;;;;;;;5.18;1.33;;;;;;;;;;5033726;28;20037;-76
2022/06/12 01:38:50;;;;;;;7.72;1.58;;;;;;;;;;5033557;28;20030;-77
2022/06/12 01:41:22;;;;;;;6.00;1.70;;;;;;;;;;5033602;28;20092;-77
2022/06/12 01:44:11;;;;;;;7.15;1.60;;;;;;;;;;5033612;28;20041;-77
2022/06/12 01:46:41;;;;;;;5.75;1.25;;;;;;;;;;4991531;28;20049;-77
2022/06/12 01:49:10;;;;;;;6.28;1.70;;;;;;;;;;4991697;28;20054;-76
2022/06/12 01:51:41;;;;;;;4.22;1.45;;;;;;;;;;4991618;28;20042;-76
2022/06/12 01:54:27;;;;;;;6.75;1.60;;;;;;;;;;4991606;28;20417;-76
2022/06/12 01:57:03;;;;;;;4.78;1.35;;;;;;;;;;4991263;28;20031;-76
2022/06/12 01:59:38;;;;;;;7.32;1.42;;;;;;;;;;4991566;28;20022;-76
2022/06/12 02:02:13;;;;;;;7.47;1.65;;;;;;;;;;4991451;28;20087;-77
2022/06/12 02:04:42;;;;;;;4.82;1.58;;;;;;;;;;4991295;28;20559;-77
2022/06/12 02:07:10;;;;;;;3.95;1.30;;;;;;;;;;4992224;28;20104;-76
2022/06/12 02:09:42;;;;;;;8.07;1.70;;;;;;;;;;4991213;28;20035;-76
2022/06/12 02:14:59;;;;;;;6.13;1.73;;;;;;;;;;4991047;28;20288;-76
2022/06/12 02:17:29;;;;;;;5.07;1.38;;;;;;;;;;4992554;28;20031;-76
2022/06/12 02:19:56;;;;;;;4.93;1.40;;;;;;;;;;4991938;28;20034;-76
2022/06/12 02:22:24;;;;;;;7.28;1.77;;;;;;;;;;4991913;28;20030;-76
2022/06/12 02:24:52;;;;;;;4.63;1.50;;;;;;;;;;5033495;28;20333;-76
2022/06/12 02:27:21;;;;;;;7.50;1.70;;;;;;;;;;5033188;28;20018;-76
2022/06/12 02:29:54;;;;;;;4.43;1.50;;;;;;;;;;5033226;28;20427;-77
2022/06/12 02:32:23;;;;;;;5.65;1.48;;;;;;;;;;5032866;28;20026;-76
2022/06/12 02:34:54;;;;;;;7.53;1.50;;;;;;;;;;5032998;28;20134;-76
2022/06/12 02:37:24;;;;;;;11.27;1.52;;;;;;;;;;5032598;28;20098;-76
2022/06/12 02:39:52;;;;;;;6.55;2.05;;;;;;;;;;5032435;28;20037;-76
2022/06/12 02:42:21;;;;;;;7.60;1.75;;;;;;;;;;5032434;28;20105;-77
2022/06/12 02:45:05;;;;;;;6.50;1.90;;;;;;;;;;5032375;28;20025;-76
2022/06/12 02:47:33;;;;;;;9.43;1.83;;;;;;;;;;5032305;28;20099;-77
2022/06/12 02:49:59;;;;;;;6.82;1.65;;;;;;;;;;5032325;28;20479;-76
2022/06/12 02:52:37;;;;;;;7.45;1.50;;;;;;;;;;5032277;28;20072;-76
2022/06/12 02:55:18;;;;;;;6.55;1.73;;;;;;;;;;5032228;28;20048;-77
2022/06/12 02:57:50;;;;;;;6.80;1.55;;;;;;;;;;5032029;28;20052;-76
2022/06/12 03:00:27;;;;;;;5.82;2.05;;;;;;;;;;5032067;28;20155;-77
2022/06/12 03:03:12;;;;;;;7.68;1.95;;;;;;;;;;5031986;28;20021;-76
2022/06/12 03:05:40;;;;;;;6.93;1.88;;;;;;;;;;5031850;28;20443;-76
2022/06/12 03:08:09;;;;;;;6.78;1.70;;;;;;;;;;5032188;28;20059;-77
2022/06/12 03:10:39;;;;;;;11.07;1.90;;;;;;;;;;5031990;28;20030;-77
2022/06/12 03:13:07;;;;;;;7.40;1.98;;;;;;;;;;5031941;28;20072;-77
2022/06/12 03:15:36;;;;;;;11.85;1.90;;;;;;;;;;5031934;28;20029;-76
2022/06/12 03:18:03;;;;;;;9.00;1.90;;;;;;;;;;5031624;28;20029;-76
2022/06/12 03:20:33;;;;;;;8.60;2.00;;;;;;;;;;5031534;28;20352;-76
2022/06/12 03:23:09;;;;;;;6.55;2.10;;;;;;;;;;5031874;28;20535;-76
2022/06/12 03:25:41;;;;;;;7.28;1.80;;;;;;;;;;5031177;28;20032;-77
2022/06/12 03:28:20;;;;;;;3.20;1.42;;;;;;;;;;5044936;28;20040;-76
2022/06/12 03:30:56;;;;;;;11.15;1.95;;;;;;;;;;5044884;28;20482;-76
2022/06/12 03:33:32;;;;;;;6.60;2.00;;;;;;;;;;5030046;28;20068;-76
2022/06/12 03:36:04;;;;;;;10.95;2.00;;;;;;;;;;5031637;28;20064;-76
2022/06/12 03:38:36;;;;;;;12.45;2.10;;;;;;;;;;5031497;28;20037;-76
2022/06/12 03:41:02;;;;;;;8.98;2.00;;;;;;;;;;5031312;28;20368;-76
2022/06/12 03:43:31;;;;;;;7.35;2.10;;;;;;;;;;5031375;28;20029;-76
2022/06/12 03:46:05;;;;;;;10.82;1.90;;;;;;;;;;5031275;28;20069;-76
2022/06/12 03:48:35;;;;;;;10.70;2.30;;;;;;;;;;5031417;28;20034;-76
2022/06/12 03:51:17;;;;;;;7.15;1.98;;;;;;;;;;5031366;28;20135;-76
2022/06/12 03:53:47;;;;;;;10.30;2.42;;;;;;;;;;5031420;28;20033;-76
2022/06/12 03:59:09;;;;;;;14.55;2.45;;;;;;;;;;5031122;28;20583;-76
2022/06/12 04:01:35;;;;;;;8.30;2.17;;;;;;;;;;5029665;28;20391;-77
2022/06/12 04:04:02;;;;;;;8.82;2.50;;;;;;;;;;5031394;28;20029;-76
2022/06/12 04:06:29;;;;;;;10.50;3.17;;;;;;;;;;5047981;28;20041;-76
2022/06/12 04:09:06;;;;;;;8.43;2.40;;;;;;;;;;5051140;28;20025;-76
2022/06/12 04:11:34;;;;;;;7.50;2.10;;;;;;;;;;5051353;28;20105;-75
2022/06/12 04:14:02;;;;;;;6.68;2.33;;;;;;;;;;5052162;28;20374;-75
2022/06/12 04:16:28;;;;;;;9.80;2.58;;;;;;;;;;5052017;28;20036;-75
2022/06/12 04:18:54;;;;;;;13.85;2.70;;;;;;;;;;5052035;28;20029;-75
2022/06/12 04:21:23;;;;;;;8.48;2.42;;;;;;;;;;5052151;28;20396;-75
2022/06/12 04:23:53;;;;;;;11.18;2.53;;;;;;;;;;5052135;28;20032;-75
2022/06/12 04:26:22;;;;;;;10.13;3.00;;;;;;;;;;5052154;28;20021;-75
2022/06/12 04:28:55;;;;;;;10.23;2.92;;;;;;;;;;5052100;28;20078;-75
2022/06/12 04:31:21;;;;;;;14.73;3.05;;;;;;;;;;5052018;28;20492;-75
2022/06/12 04:34:04;;;;;;;13.07;2.80;;;;;;;;;;5051859;28;20456;-75
2022/06/12 04:36:31;;;;;;;11.10;2.20;;;;;;;;;;5053028;28;20095;-75
2022/06/12 04:38:57;;;;;;;9.43;2.70;;;;;;;;;;5055578;28;20112;-75
2022/06/12 04:41:30;;;;;;;10.70;2.60;;;;;;;;;;5055394;28;20443;-75
2022/06/12 04:43:56;;;;;;;13.45;2.50;;;;;;;;;;5055587;28;20025;-75
2022/06/12 04:46:23;;;;;;;13.88;2.70;;;;;;;;;;5055306;28;20041;-75
2022/06/12 04:48:50;;;;;;;14.02;2.58;;;;;;;;;;5055566;28;20021;-75
2022/06/12 04:51:17;;;;;;;13.68;2.72;;;;;;;;;;5055418;28;20029;-75
2022/06/12 04:53:44;;;;;;;12.57;2.80;;;;;;;;;;5055453;28;20139;-75
2022/06/12 04:56:11;;;;;;;12.02;2.72;;;;;;;;;;5055504;28;20063;-75
2022/06/12 04:58:38;;;;;;;13.63;2.60;;;;;;;;;;5055006;28;20028;-75
2022/06/12 05:01:04;;;;;;;16.50;3.88;;;;;;;;;;5055270;28;20057;-75
2022/06/12 05:03:30;;;;;;;10.73;2.92;;;;;;;;;;5055191;28;20079;-75
2022/06/12 05:05:57;;;;;;;9.70;2.28;;;;;;;;;;5055298;28;20036;-75
2022/06/12 05:08:23;;;;;;;17.02;3.22;;;;;;;;;;5055239;28;20096;-75
2022/06/12 05:10:49;;;;;;;9.60;2.42;;;;;;;;;;5055095;28;20028;-75
2022/06/12 05:13:15;;;;;;;13.57;3.00;;;;;;;;;;5055219;28;20335;-75
2022/06/12 05:15:41;;;;;;;17.75;3.70;;;;;;;;;;5055003;28;20108;-75
2022/06/12 05:18:08;;;;;;;19.38;3.03;;;;;;;;;;5054745;28;20378;-75
2022/06/12 05:20:35;;;;;;;14.65;2.58;;;;;;;;;;5054817;28;20040;-75
2022/06/12 05:23:03;;;;;;;16.55;3.20;;;;;;;;;;5053567;28;20032;-75
2022/06/12 05:25:30;;;;;;;17.73;2.50;;;;;;;;;;5054703;28;20110;-75
2022/06/12 05:27:56;;;;;;;13.80;2.53;;;;;;;;;;5054721;28;20031;-75
2022/06/12 05:30:24;;;;;;;13.20;2.88;;;;;;;;;;5054513;28;20025;-75
2022/06/12 05:32:51;;;;;;;17.92;3.22;;;;;;;;;;5054624;28;20447;-75
2022/06/12 05:35:18;;;;;;;18.63;3.65;;;;;;;;;;5054478;28;20021;-75
2022/06/12 05:37:45;;;;;;;15.80;3.85;;;;;;;;;;5054619;28;20025;-75
2022/06/12 05:40:14;;;;;;;12.43;2.97;;;;;;;;;;5054594;28;20079;-75
2022/06/12 05:42:40;;;;;;;10.35;2.50;;;;;;;;;;5054256;28;20037;-75
2022/06/12 05:45:08;;;;;;;15.25;3.33;;;;;;;;;;5054438;28;20082;-75
2022/06/12 05:47:34;;;;;;;30.70;3.03;;;;;;;;;;5053846;28;20048;-75
2022/06/12 05:50:00;;;;;;;11.43;2.53;;;;;;;;;;5054483;28;20040;-75
2022/06/12 05:52:27;;;;;;;12.90;3.28;;;;;;;;;;5054112;28;20116;-75
2022/06/12 05:54:53;;;;;;;18.73;2.95;;;;;;;;;;5054085;28;20029;-75
2022/06/12 05:57:19;;;;;;;17.15;3.70;;;;;;;;;;5054051;28;20025;-75
2022/06/12 05:59:45;;;;;;;18.45;3.25;;;;;;;;;;5053905;28;20068;-75
2022/06/12 06:02:11;;;;;;;15.52;3.53;;;;;;;;;;5053786;28;20029;-75
2022/06/12 06:04:37;;;;;;;16.85;2.80;;;;;;;;;;5052188;28;20107;-75
2022/06/12 06:07:03;;;;;;;13.38;2.47;;;;;;;;;;5033651;28;20029;-75
2022/06/12 06:09:30;;;;;;;13.63;2.72;;;;;;;;;;5033430;28;20025;-75
2022/06/12 06:11:56;;;;;;;19.40;3.33;;;;;;;;;;5033066;28;20026;-75
2022/06/12 06:14:22;;;;;;;15.18;3.00;;;;;;;;;;5033259;28;20030;-75
2022/06/12 06:16:48;;;;;;;15.07;3.08;;;;;;;;;;5032235;28;20395;-75
2022/06/12 06:19:15;;;;;;;16.20;3.35;;;;;;;;;;5033259;28;20447;-75
2022/06/12 06:21:41;;;;;;;14.77;3.05;;;;;;;;;;5033470;28;20030;-75
2022/06/12 06:24:09;;;;;;;11.98;2.83;;;;;;;;;;5033626;28;20386;-75
2022/06/12 06:26:35;;;;;;;18.15;3.33;;;;;;;;;;5033218;28;20407;-75
2022/06/12 06:29:02;;;;;;;13.75;2.90;;;;;;;;;;5033192;28;20030;-76
2022/06/12 06:31:28;;;;;;;16.95;3.42;;;;;;;;;;5033099;28;20025;-75
2022/06/12 06:33:54;;;;;;;13.88;2.53;;;;;;;;;;5033347;28;20475;-75
2022/06/12 06:36:20;;;;;;;19.40;3.28;;;;;;;;;;5033242;28;20195;-75
2022/06/12 06:38:49;;;;;;;17.27;3.28;;;;;;;;;;5033148;28;20025;-75
2022/06/12 06:41:15;;;;;;;14.10;2.70;;;;;;;;;;5033200;28;20416;-75
2022/06/12 06:46:26;;;;;;;21.33;2.83;;;;;;;;;;5032724;28;20169;-75
2022/06/12 06:48:53;;;;;;;11.60;2.88;;;;;;;;;;5032860;28;20028;-75
2022/06/12 06:51:19;;;;;;;14.68;3.83;;;;;;;;;;5033057;28;20022;-76
2022/06/12 06:53:45;;;;;;;14.82;3.20;;;;;;;;;;5032870;28;20032;-75
2022/06/12 06:56:11;;;;;;;15.63;2.60;;;;;;;;;;5032923;28;20100;-75
2022/06/12 06:58:38;;;;;;;14.10;3.42;;;;;;;;;;5032419;28;20034;-75
2022/06/12 07:01:04;;;;;;;16.75;3.83;;;;;;;;;;5032392;28;20025;-75
2022/06/12 07:03:30;;;;;;;11.80;2.83;;;;;;;;;;5032742;28;20060;-75
2022/06/12 07:05:57;;;;;;;16.83;3.75;;;;;;;;;;5032700;28;20028;-75
2022/06/12 07:08:24;;;;;;;11.32;2.00;;;;;;;;;;5032786;28;20025;-75
2022/06/12 07:10:50;;;;;;;15.77;3.83;;;;;;;;;;5032529;28;20105;-75
2022/06/12 07:13:16;;;;;;;18.38;4.95;;;;;;;;;;5032807;28;20337;-75
2022/06/12 07:15:43;;;;;;;10.15;2.47;;;;;;;;;;5032739;28;20420;-75
2022/06/12 07:18:09;;;;;;;14.30;2.40;;;;;;;;;;5032567;28;20064;-76
2022/06/12 07:20:37;;;;;;;13.15;2.83;;;;;;;;;;5032497;28;20494;-75
2022/06/12 07:23:04;;;;;;;9.77;2.17;;;;;;;;;;5032690;28;20100;-75
2022/06/12 07:25:31;;;;;;;22.08;3.47;;;;;;;;;;5032466;28;20045;-75
2022/06/12 07:27:57;;;;;;;12.52;2.60;;;;;;;;;;5043635;28;20092;-75
2022/06/12 07:30:24;;;;;;;12.43;2.65;;;;;;;;;;5051134;28;20021;-75
2022/06/12 07:32:50;;;;;;;13.90;3.35;;;;;;;;;;5051470;28;20079;-75
2022/06/12 07:35:17;;;;;;;10.05;2.80;;;;;;;;;;5051565;28;20044;-75
2022/06/12 07:37:43;;;;;;;8.77;2.65;;;;;;;;;;5051592;28;20017;-75
2022/06/12 07:40:12;;;;;;;17.15;2.88;;;;;;;;;;5051601;28;20468;-75
2022/06/12 07:42:38;;;;;;;15.65;2.53;;;;;;;;;;5051631;28;20099;-75
2022/06/12 07:45:05;;;;;;;9.80;2.30;;;;;;;;;;5051354;28;20071;-75
2022/06/12 07:47:32;;;;;;;14.68;2.97;;;;;;;;;;5051235;28;20045;-75
2022/06/12 07:49:58;;;;;;;18.33;2.92;;;;;;;;;;5051156;28;20036;-75
2022/06/12 07:52:26;;;;;;;10.88;2.85;;;;;;;;;;5051241;28;20029;-75
2022/06/12 07:54:52;;;;;;;11.13;2.80;;;;;;;;;;5051595;28;20351;-75
2022/06/12 07:57:18;;;;;;;11.73;2.25;;;;;;;;;;5051044;28;20057;-75
2022/06/12 07:59:45;;;;;;;12.65;2.50;;;;;;;;;;5051097;28;20033;-75
2022/06/12 08:02:11;;;;;;;12.93;2.70;;;;;;;;;;5051135;28;20033;-75
2022/06/12 08:04:38;;;;;;;12.57;2.38;;;;;;;;;;5051238;28;20025;-75
2022/06/12 08:07:04;;;;;;;9.60;2.30;;;;;;;;;;5051158;28;20025;-75
2022/06/12 08:09:30;;;;;;;9.80;2.72;;;;;;;;;;5051313;28;20028;-75
2022/06/12 08:11:56;;;;;;;11.57;2.38;;;;;;;;;;5054871;28;20047;-75
2022/06/12 08:14:24;;;;;;;14.57;2.60;;;;;;;;;;5055257;28;20037;-75
2022/06/12 08:16:50;;;;;;;11.38;2.65;;;;;;;;;;5054995;28;20435;-75
2022/06/12 08:22:03;;;;;;;9.38;2.28;;;;;;;;;;5055072;28;20052;-75
2022/06/12 08:24:29;;;;;;;16.80;2.22;;;;;;;;;;5054798;28;20025;-75
2022/06/12 08:26:55;;;;;;;8.18;2.05;;;;;;;;;;5054699;28;20021;-75
2022/06/12 08:29:22;;;;;;;9.18;2.10;;;;;;;;;;5054660;28;20554;-75
2022/06/12 08:31:49;;;;;;;11.05;3.55;;;;;;;;;;5054633;28;20021;-75
2022/06/12 08:34:22;;;;;;;14.40;2.33;;;;;;;;;;5054859;28;20025;-75
2022/06/12 08:36:48;;;;;;;11.25;2.72;;;;;;;;;;5055329;28;20105;-75
2022/06/12 08:39:14;;;;;;;12.00;2.25;;;;;;;;;;5055383;28;20033;-75
2022/06/12 08:41:48;;;;;;;12.80;2.25;;;;;;;;;;5055825;28;20110;-75
2022/06/12 08:44:27;;;;;;;10.20;1.65;;;;;;;;;;5055270;28;20025;-75
2022/06/12 08:47:05;;;;;;;7.15;1.80;;;;;;;;;;5055077;28;20080;-75
2022/06/12 08:49:51;;;;;;;14.65;3.00;;;;;;;;;;5055190;28;20029;-75
2022/06/12 08:52:24;;;;;;;9.75;1.88;;;;;;;;;;4993584;28;20057;-75
2022/06/12 08:55:12;;;;;;;11.07;2.08;;;;;;;;;;5010060;28;20455;-75
2022/06/12 08:58:10;;;;;;;9.40;1.70;;;;;;;;;;4954588;29;20039;-75
2022/06/12 09:00:37;;;;;;;11.02;2.47;;;;;;;;;;4897817;29;20067;-75
2022/06/12 09:03:04;;;;;;;10.05;2.20;;;;;;;;;;4897464;29;20044;-75
2022/06/12 09:05:36;;;;;;;8.23;1.55;;;;;;;;;;4897775;29;20140;-75
2022/06/12 09:08:16;;;;;;;9.93;2.28;;;;;;;;;;4897635;29;20199;-75
2022/06/12 09:10:45;;;;;;;11.60;2.47;;;;;;;;;;4897503;29;20100;-75
2022/06/12 09:13:31;;;;;;;10.50;1.73;;;;;;;;;;4897370;29;20037;-75
2022/06/12 09:16:15;;;;;;;6.78;2.28;;;;;;;;;;4897387;29;20044;-75
2022/06/12 09:18:59;;;;;;;8.57;2.50;;;;;;;;;;4897475;29;20115;-75
2022/06/12 09:21:29;;;;;;;9.70;1.90;;;;;;;;;;4897072;29;20043;-76
2022/06/12 09:24:03;;;;;;;8.00;2.05;;;;;;;;;;4896669;29;20041;-75
2022/06/12 09:26:44;;;;;;;6.93;1.75;;;;;;;;;;4881528;29;20348;-75
2022/06/12 09:29:13;;;;;;;10.15;1.70;;;;;;;;;;4912433;29;20608;-76
2022/06/12 09:31:44;;;;;;;6.90;1.92;;;;;;;;;;4922049;29;20076;-76
2022/06/12 09:34:15;;;;;;;8.85;2.05;;;;;;;;;;4933588;28;20038;-75
2022/06/12 09:36:44;;;;;;;7.53;2.10;;;;;;;;;;5015975;28;20103;-75
2022/06/12 09:39:29;;;;;;;7.60;1.63;;;;;;;;;;5034228;28;20083;-76
2022/06/12 09:42:04;;;;;;;8.63;1.38;;;;;;;;;;5034005;28;20131;-76
2022/06/12 09:44:48;;;;;;;9.63;1.70;;;;;;;;;;5034339;28;20025;-76
2022/06/12 09:47:22;;;;;;;11.70;1.55;;;;;;;;;;5033715;28;20052;-75
2022/06/12 09:50:01;;;;;;;8.93;1.92;;;;;;;;;;5034038;28;20048;-75
2022/06/12 09:52:36;;;;;;;7.22;2.08;;;;;;;;;;5033928;28;20084;-76
2022/06/12 09:55:02;;;;;;;7.28;1.60;;;;;;;;;;5034022;28;20037;-76
2022/06/12 09:57:47;;;;;;;7.22;1.67;;;;;;;;;;5033746;28;20094;-76
2022/06/12 10:00:27;;;;;;;7.30;1.77;;;;;;;;;;5033759;28;20017;-76
2022/06/12 10:02:56;;;;;;;9.98;2.17;;;;;;;;;;5033799;28;20440;-76
2022/06/12 10:05:22;;;;;;;9.82;1.40;;;;;;;;;;5033699;28;20038;-76
2022/06/12 10:08:09;;;;;;;7.50;1.60;;;;;;;;;;5033637;28;20906;-76
2022/06/12 10:10:44;;;;;;;11.98;1.48;;;;;;;;;;5033647;28;20452;-76
2022/06/12 10:13:13;;;;;;;8.75;1.77;;;;;;;;;;5033493;28;20135;-76
2022/06/12 10:15:46;;;;;;;5.75;1.30;;;;;;;;;;5033791;28;20091;-76
2022/06/12 10:18:17;;;;;;;7.45;1.52;;;;;;;;;;5033579;28;20025;-76
2022/06/12 10:20:49;;;;;;;9.52;1.80;;;;;;;;;;5033525;28;20087;-75
2022/06/12 10:23:15;;;;;;;3.60;1.20;;;;;;;;;;5033463;28;20067;-76
2022/06/12 10:25:47;;;;;;;4.75;1.40;;;;;;;;;;5033444;28;20018;-75
2022/06/12 10:28:13;;;;;;;7.57;1.55;;;;;;;;;;5033706;28;20095;-75
2022/06/12 10:30:41;;;;;;;7.00;1.40;;;;;;;;;;5033485;28;20452;-75
2022/06/12 10:33:46;;;;;;;5.72;1.27;;;;;;;;;;5033240;28;20116;-75
2022/06/12 10:36:19;;;;;;;12.02;1.75;;;;;;;;;;4991881;28;20029;-75
2022/06/12 10:38:45;;;;;;;5.00;1.30;;;;;;;;;;4991703;28;20431;-74
2022/06/12 10:41:25;;;;;;;5.68;1.80;;;;;;;;;;4991715;28;20042;-76
2022/06/12 10:43:52;;;;;;;9.20;1.60;;;;;;;;;;4991602;28;20393;-75
2022/06/12 10:46:20;;;;;;;6.47;1.50;;;;;;;;;;4991392;28;20055;-75
2022/06/12 10:49:03;;;;;;;8.20;1.80;;;;;;;;;;4991542;28;20042;-75
2022/06/12 10:51:29;;;;;;;3.85;1.70;;;;;;;;;;4991289;28;20030;-75
2022/06/12 10:54:06;;;;;;;10.60;2.05;;;;;;;;;;4991196;28;20049;-75
2022/06/12 10:56:50;;;;;;;8.07;1.85;;;;;;;;;;4991148;28;20030;-75
2022/06/12 10:59:24;;;;;;;10.05;1.70;;;;;;;;;;4991073;28;20034;-75
2022/06/12 11:02:02;;;;;;;5.75;1.98;;;;;;;;;;4991126;28;20053;-75
2022/06/12 11:04:37;;;;;;;7.20;1.75;;;;;;;;;;4991082;28;20034;-75
2022/06/12 11:07:16;;;;;;;6.30;1.70;;;;;;;;;;5025380;28;20049;-75
2022/06/12 11:09:54;;;;;;;5.82;1.95;;;;;;;;;;5052716;28;20029;-75
2022/06/12 11:12:23;;;;;;;7.90;2.33;;;;;;;;;;5052720;28;20314;-75
2022/06/12 11:14:49;;;;;;;6.20;1.42;;;;;;;;;;5052643;28;20032;-75
2022/06/12 11:17:21;;;;;;;6.18;1.80;;;;;;;;;;5052603;28;20028;-75
2022/06/12 11:19:59;;;;;;;10.00;2.05;;;;;;;;;;5052774;28;20036;-75
2022/06/12 11:22:58;;;;;;;7.55;1.98;;;;;;;;;;5052483;28;20375;-75
2022/06/12 11:25:42;;;;;;;6.85;2.13;;;;;;;;;;4990836;28;20042;-75
2022/06/12 11:28:11;;;;;;;7.32;1.75;;;;;;;;;;4990817;28;20129;-75
2022/06/12 11:31:12;;;;;;;6.60;2.28;;;;;;;;;;4990639;28;20029;-75
2022/06/12 11:33:44;;;;;;;8.45;2.00;;;;;;;;;;4952747;29;20032;-75
2022/06/12 11:36:28;;;;;;;10.50;1.87;;;;;;;;;;4951957;29;20490;-75
2022/06/12 11:39:13;;;;;;;8.18;1.60;;;;;;;;;;4951946;29;20342;-75
2022/06/12 11:41:57;;;;;;;7.47;1.40;;;;;;;;;;4951884;29;20530;-75
2022/06/12 11:44:26;;;;;;;5.47;1.20;;;;;;;;;;4952133;29;20110;-75
2022/06/12 11:47:06;;;;;;;8.88;1.52;;;;;;;;;;4951519;28;20466;-75
2022/06/12 11:49:42;;;;;;;8.25;1.80;;;;;;;;;;4951985;29;20031;-75
2022/06/12 11:52:11;;;;;;;6.13;1.45;;;;;;;;;;4951833;29;20054;-75
2022/06/12 11:54:42;;;;;;;7.88;1.60;;;;;;;;;;4951946;29;20054;-75
2022/06/12 11:57:23;;;;;;;5.15;1.20;;;;;;;;;;4951873;29;20485;-74
2022/06/12 11:59:49;;;;;;;7.43;1.50;;;;;;;;;;4952809;28;20063;-75
2022/06/12 12:02:15;;;;;;;9.98;1.42;;;;;;;;;;5010697;28;20381;-75
2022/06/12 12:04:59;;;;;;;5.63;1.40;;;;;;;;;;5010536;28;20061;-75
2022/06/12 12:07:28;;;;;;;4.95;1.20;;;;;;;;;;5027999;28;20046;-75
2022/06/12 12:09:54;;;;;;;4.80;1.00;;;;;;;;;;5052215;28;20017;-75
2022/06/12 12:12:23;;;;;;;7.47;1.42;;;;;;;;;;5052346;28;20064;-75
2022/06/12 12:14:50;;;;;;;6.15;1.38;;;;;;;;;;5052250;28;20021;-75
2022/06/12 12:17:19;;;;;;;4.68;1.10;;;;;;;;;;5052232;28;20336;-75
2022/06/12 12:19:59;;;;;;;4.80;1.42;;;;;;;;;;5052324;28;20021;-75
2022/06/12 12:22:31;;;;;;;5.50;1.23;;;;;;;;;;5052081;28;20021;-75
2022/06/12 12:24:57;;;;;;;;;;;;;;;;;;5052464;28;20025;-75
2022/06/12 12:27:31;;;;;;;6.22;1.20;;;;;;;;;;5051739;28;20412;-75
2022/06/12 12:29:57;;;;;;;3.25;0.95;;;;;;;;;;5051705;28;20025;-75
2022/06/12 12:32:24;;;;;;;5.00;0.85;;;;;;;;;;5032323;28;20026;-75
2022/06/12 12:34:52;;;;;;;5.53;1.00;;;;;;;;;;5031602;28;20043;-75
2022/06/12 12:42:47;;;;;;;4.10;0.90;;;;;;;;;;5031991;28;20064;-75
2022/06/12 12:45:19;;;;;;;3.53;1.02;;;;;;;;;;5031997;28;20053;-74
2022/06/12 12:47:45;;;;;;;;;;;;;;;;;;5032171;28;20476;-75
2022/06/12 12:50:16;;;;;;;7.65;1.30;;;;;;;;;;5031904;28;19916;-75
2022/06/12 12:52:48;;;;;;;4.43;0.95;;;;;;;;;;5031484;28;20368;-75
2022/06/12 12:55:33;;;;;;;5.43;0.90;;;;;;;;;;5031618;28;20029;-75
2022/06/12 12:58:00;;;;;;;6.00;1.33;;;;;;;;;;5033443;28;20044;-74
2022/06/12 13:00:32;;;;;;;2.58;1.00;;;;;;;;;;5035123;28;20036;-74
2022/06/12 13:03:09;;;;;;;3.65;0.85;;;;;;;;;;5035450;28;20035;-74
2022/06/12 13:05:46;;;;;;;4.30;0.82;;;;;;;;;;5044883;28;20032;-74
2022/06/12 13:08:15;;;;;;;2.83;0.95;;;;;;;;;;5055200;28;20025;-74
2022/06/12 13:10:49;;;;;;;7.00;0.88;;;;;;;;;;5055259;28;20061;-74
2022/06/12 13:13:24;;;;;;;4.97;1.20;;;;;;;;;;5055206;28;20025;-74
2022/06/12 13:16:15;;;;;;;3.67;1.15;;;;;;;;;;5054879;28;20044;-76
2022/06/12 13:18:47;;;;;;;5.47;0.90;;;;;;;;;;5054841;28;20029;-76
2022/06/12 13:21:25;;;;;;;5.07;1.05;;;;;;;;;;5054710;28;20083;-75
2022/06/12 13:24:10;;;;;;;3.95;0.88;;;;;;;;;;5054721;28;20087;-76
2022/06/12 13:26:37;;;;;;;3.63;0.90;;;;;;;;;;5054894;28;20032;-76
2022/06/12 13:29:04;;;;;;;7.28;1.30;;;;;;;;;;5054679;28;20151;-75
2022/06/12 13:31:33;;;;;;;2.85;0.93;;;;;;;;;;5054454;28;20024;-74
2022/06/12 13:34:00;;;;;;;3.47;0.98;;;;;;;;;;5054396;28;20036;-74
2022/06/12 13:36:33;;;;;;;3.42;0.80;;;;;;;;;;5054240;28;20033;-73
2022/06/12 13:39:01;;;;;;;3.25;1.13;;;;;;;;;;5054514;28;20384;-74
2022/06/12 13:41:33;;;;;;;9.30;1.17;;;;;;;;;;5054233;28;20079;-74
2022/06/12 13:44:18;;;;;;;5.15;0.82;;;;;;;;;;5054441;28;20024;-75
2022/06/12 13:46:44;;;;;;;3.45;0.77;;;;;;;;;;5054207;28;20655;-74
2022/06/12 13:49:27;;;;;;;3.15;1.00;;;;;;;;;;5053922;28;20059;-75
2022/06/12 13:51:56;;;;;;;4.32;0.85;;;;;;;;;;5053299;28;20037;-76
2022/06/12 13:54:25;;;;;;;4.85;0.85;;;;;;;;;;5053366;28;20359;-76
2022/06/12 13:57:15;;;;;;;4.70;1.00;;;;;;;;;;5053424;28;20060;-76
2022/06/12 13:59:44;;;;;;;3.13;1.00;;;;;;;;;;4991727;28;20046;-76
2022/06/12 14:02:36;;;;;;;3.97;0.80;;;;;;;;;;4991669;28;20149;-76
2022/06/12 14:05:16;;;;;;;3.50;1.42;;;;;;;;;;4984996;28;20140;-76
2022/06/12 14:07:43;;;;;;;6.15;1.08;;;;;;;;;;4972107;28;20532;-75
2022/06/12 14:10:15;;;;;;;4.47;0.93;;;;;;;;;;4972060;28;20079;-76
2022/06/12 14:12:41;;;;;;;;;;;;;;;;;;4972594;28;20031;-76
2022/06/12 14:15:25;;;;;;;3.08;1.02;;;;;;;;;;4972193;28;19906;-76
2022/06/12 14:17:53;;;;;;;4.30;1.30;;;;;;;;;;4972100;28;20528;-76
2022/06/12 14:20:45;;;;;;;1.92;0.63;;;;;;;;;;4971960;28;20039;-76
2022/06/12 14:23:20;;;;;;;5.68;0.60;;;;;;;;;;4954905;28;20043;-76
2022/06/12 14:25:50;;;;;;;1.33;0.68;;;;;;;;;;4971955;28;20023;-75
2022/06/12 14:28:19;;;;;;;2.17;0.82;;;;;;;;;;4985950;28;20122;-75
2022/06/12 14:30:56;;;;;;;1.42;0.50;;;;;;;;;;4991138;28;20078;-76
2022/06/12 14:33:52;;;;;;;2.92;0.77;;;;;;;;;;5007426;28;20145;-75
2022/06/12 14:36:26;;;;;;;4.20;0.93;;;;;;;;;;5005584;28;20034;-75
2022/06/12 14:38:52;;;;;;;2.95;0.70;;;;;;;;;;5032274;28;20033;-75
2022/06/12 14:41:23;;;;;;;5.13;0.80;;;;;;;;;;5032460;28;20087;-75
2022/06/12 14:43:50;;;;;;;2.72;0.65;;;;;;;;;;5032376;28;20040;-76
2022/06/12 14:46:18;;;;;;;2.60;0.60;;;;;;;;;;5032289;28;20495;-75
2022/06/12 14:48:45;;;;;;;3.38;0.75;;;;;;;;;;5032408;28;20029;-76
2022/06/12 14:51:11;;;;;;;7.88;0.82;;;;;;;;;;5032464;28;20034;-76
2022/06/12 14:53:38;;;;;;;3.03;0.90;;;;;;;;;;5032302;28;20664;-75
2022/06/12 14:56:07;;;;;;;3.10;0.77;;;;;;;;;;5032205;28;20017;-76
2022/06/12 14:58:38;;;;;;;2.38;0.60;;;;;;;;;;5032050;28;20309;-76
2022/06/12 15:01:06;;;;;;;0.93;0.60;;;;;;;;;;5031976;28;20025;-76
2022/06/12 15:03:32;;;;;;;3.17;0.82;;;;;;;;;;5032257;28;20033;-76
2022/06/12 15:05:59;;;;;;;1.88;0.60;;;;;;;;;;5044631;28;20398;-75
2022/06/12 15:08:25;;;;;;;3.40;0.80;;;;;;;;;;5051842;28;20052;-75
2022/06/12 15:10:53;;;;;;;2.75;0.90;;;;;;;;;;5051566;28;20127;-74
2022/06/12 15:13:20;;;;;;;2.00;0.75;;;;;;;;;;5051777;28;20017;-75
2022/06/12 15:15:46;;;;;;;3.22;0.90;;;;;;;;;;5051807;28;20029;-75
2022/06/12 15:18:12;;;;;;;1.95;0.70;;;;;;;;;;5051760;28;20343;-75
2022/06/12 15:20:48;;;;;;;3.10;0.70;;;;;;;;;;5051140;28;20033;-75